KGYR

Phoenix Goodyear Airport

Goodyear, Arizona, USA
METAR KGYR 210347Z 21013G18KT 10SM FEW100 FEW200 SCT250 38/17 A2981 RMK LAST
Observed Flight Rules
Aug-21 @ 03:47 UTC (10 hours ago) Visual Flight Rules
Wind Visibility Clouds
210° at 13 knots
 Gusting to 18 knots
10 miles
  • Few at 10,000' AGL
  • Few at 20,000' AGL
  • Scattered at 25,000' AGL
Temperatures Readings
Current 38°C / 100°F
Dewpoint 17°C / 63°F
Humidity 29%
Altimeter 29.81" Hg
Pressure 1009 hPa
Elevation 295
METAR KGYR 210347Z 21013G18KT 10SM FEW100 FEW200 SCT250 38/17 A2981 RMK LAST
Observed Flight Rules
Aug-21 @ 03:47 UTC
(10 hours ago)
VFR
Wind Visibility
210° at 13 knots
 Gusting to 18 knots
10 miles
Clouds
  • Few at 10,000' AGL
  • Few at 20,000' AGL
  • Scattered at 25,000' AGL
Temperature Dewpoint
38°C / 100°F 17°C / 63°F
Humidity Altimeter Pressure
29% 29.81" Hg 1009 hPa